Resolute, Nunavut

6:17 PM MST on February 09, 2016 (GMT -0700)
Resolute | | Change Station
CLOSE
Current Station
Airport
Location: Resolute,
Elevation: 220 ft
Nearby Weather Stations

Elev 220 ft 74.72 °N, 94.97 °W | Updated 17 minutes ago

Ice Crystals
Ice Crystals Blowing Snow
-29 °F
Feels Like -56 °F
N
14
Wind Variable Wind from North

Today
High -- | Low -- °F
--% Chance of Precip.
Yesterday
High -- | Low -- °F
Precip. -- in
Pressure 30.12 in
Visibility 2.0 miles
Clouds Few 16000 ft
Windchill -56 °F
Dew Point -35 °F
Humidity 75%
Rainfall 0.00 in
Snow Depth Not available.
9:52 AM 1:17 PM
Waxing Crescent, 3% visible
METAR CYRB 100100Z 35012KT 2SM IC BLSN FEW160 M34/M37 A3007 RMK AS1 AS TR SLP200 DENSITY ALT MISG
Pressure 30.12 in
Visibility 2.0 miles
Clouds Few 16000 ft
Windchill -56 °F
Dew Point -35 °F
Humidity 75%
Rainfall 0.00 in
Snow Depth Not available.
9:52 AM 1:17 PM
Waxing Crescent, 3% visible
METAR CYRB 100100Z 35012KT 2SM IC BLSN FEW160 M34/M37 A3007 RMK AS1 AS TR SLP200 DENSITY ALT MISG

10-Day Weather Forecast

No radar image for this location.
×

Almanac

Astronomy

Feb. 09, 2016 Rise Set
Actual Time
Civil Twilight
Nautical Twilight
Astronomical Twilight
Moon
Length of Visible Light
Length of Day
Tomorrow will be .
, % of the Moon is Illuminated

Today's Extremes

Country Highs Country Lows

Community

WunderPhotos

Upload Photos

1,891,752 photos uploaded!

WunderBlog® & News

Nearby

Air Quality

  Air Quality AQ Index Pollutant
Not available.

Snow Depth

Station Depth Elevation

Earthquake Activity

City Distance Mag. Time & Date
Minimum magnitude displayed is 2.5.

Coastal Water Temperatures

Place Temperature

Stations

Nearby Weather Stations

Station Location Temp. Windchill Dew Point Humidity Wind Precip. Elev Updated Type
                   

Watches & Warnings

There are currently no watches in effect.